Time;durP1;ratioP1;P1;durP2;ratioP2;P2;SDS_P1;SDS_P2;PMS_P1;PMS_P2;Temp;Humidity;BMP_temperature;BMP_pressure;BME280_temperature;BME280_humidity;BME280_pressure;Samples;Min_cycle;Max_cycle;Signal;HPM_P1;HPM_P2
2022/06/26 00:01:00;;;;;;;7.10;3.43;;;22.50;1.00;;;;;;5005998;28;20188;-76
2022/06/26 00:03:29;;;;;;;4.27;3.40;;;22.30;1.00;;;;;;4989134;28;20205;-75
2022/06/26 00:05:55;;;;;;;4.97;3.90;;;22.20;1.00;;;;;;5007599;28;20210;-75
2022/06/26 00:08:21;;;;;;;5.17;3.60;;;22.30;1.00;;;;;;5006380;28;20469;-75
2022/06/26 00:10:47;;;;;;;5.40;3.40;;;22.30;1.00;;;;;;5024910;28;20180;-75
2022/06/26 00:13:13;;;;;;;4.50;3.33;;;22.30;1.00;;;;;;5010523;28;20186;-75
2022/06/26 00:15:39;;;;;;;6.53;4.00;;;22.20;1.00;;;;;;5004965;28;20436;-75
2022/06/26 00:18:05;;;;;;;5.07;3.63;;;22.30;1.00;;;;;;5007325;28;20436;-75
2022/06/26 00:20:31;;;;;;;4.77;3.87;;;22.30;1.00;;;;;;4989036;28;20471;-75
2022/06/26 00:22:57;;;;;;;6.70;4.23;;;22.30;1.00;;;;;;5005134;28;20315;-76
2022/06/26 00:25:22;;;;;;;4.40;3.97;;;22.20;1.00;;;;;;5006535;28;20524;-75
2022/06/26 00:27:48;;;;;;;6.60;4.03;;;22.10;1.00;;;;;;5007712;28;20609;-75
2022/06/26 00:30:14;;;;;;;4.70;3.63;;;22.20;1.00;;;;;;4988668;28;20177;-76
2022/06/26 00:32:40;;;;;;;4.63;4.13;;;22.20;1.00;;;;;;4989283;28;20205;-75
2022/06/26 00:35:06;;;;;;;7.30;3.60;;;22.20;1.00;;;;;;5006102;28;20644;-75
2022/06/26 00:37:32;;;;;;;9.23;4.13;;;22.20;1.00;;;;;;5007377;28;20521;-76
2022/06/26 00:39:57;;;;;;;5.07;3.63;;;22.20;1.00;;;;;;5016308;28;20471;-75
2022/06/26 00:42:23;;;;;;;4.50;3.50;;;22.20;1.00;;;;;;4998306;28;20174;-76
2022/06/26 00:44:52;;;;;;;7.13;4.00;;;22.20;1.00;;;;;;5003556;28;20618;-75
2022/06/26 00:47:18;;;;;;;4.77;3.70;;;22.20;1.00;;;;;;5020557;28;20531;-76
2022/06/26 00:49:44;;;;;;;5.30;4.17;;;22.20;1.00;;;;;;5013415;28;20437;-75
2022/06/26 00:52:10;;;;;;;6.17;4.57;;;22.30;1.00;;;;;;5006353;28;20420;-75
2022/06/26 00:54:36;;;;;;;4.53;3.77;;;22.10;1.00;;;;;;5003511;28;20237;-75
2022/06/26 00:57:02;;;;;;;7.13;4.03;;;22.00;1.00;;;;;;5010664;28;20257;-76
2022/06/26 00:59:28;;;;;;;4.67;3.67;;;22.00;1.00;;;;;;4991478;28;20610;-76
2022/06/26 01:01:53;;;;;;;5.47;4.10;;;21.90;1.00;;;;;;5009789;28;20382;-75
2022/06/26 01:04:19;;;;;;;5.00;4.20;;;21.80;1.00;;;;;;5010141;28;20197;-75
2022/06/26 01:06:46;;;;;;;9.63;4.57;;;21.70;1.00;;;;;;5009494;28;20477;-75
2022/06/26 01:09:12;;;;;;;5.20;4.70;;;21.60;1.00;;;;;;4995944;28;20264;-75
2022/06/26 01:11:38;;;;;;;9.30;4.83;;;21.50;1.00;;;;;;5029845;28;20542;-75
2022/06/26 01:14:04;;;;;;;6.03;4.97;;;21.50;1.00;;;;;;5012260;28;20254;-75
2022/06/26 01:16:30;;;;;;;7.33;4.70;;;21.40;1.00;;;;;;5010149;28;20909;-76
2022/06/26 01:18:56;;;;;;;7.50;4.40;;;21.40;1.00;;;;;;5007189;28;20479;-75
2022/06/26 01:21:23;;;;;;;8.17;4.40;;;21.40;1.00;;;;;;4989909;28;20285;-75
2022/06/26 01:23:49;;;;;;;10.73;4.10;;;21.70;1.00;;;;;;5010102;28;20444;-75
2022/06/26 01:26:15;;;;;;;4.87;3.93;;;21.50;1.00;;;;;;4992069;28;20449;-75
2022/06/26 01:28:41;;;;;;;4.53;4.13;;;21.60;1.00;;;;;;5009700;28;20599;-75
2022/06/26 01:31:07;;;;;;;4.70;3.80;;;21.60;1.00;;;;;;4990204;28;20440;-76
2022/06/26 01:33:33;;;;;;;4.23;3.60;;;21.60;1.00;;;;;;5010147;28;20549;-76
2022/06/26 01:35:59;;;;;;;10.63;4.30;;;21.70;1.00;;;;;;5009271;28;20238;-76
2022/06/26 01:38:24;;;;;;;4.70;3.57;;;21.70;1.00;;;;;;5009521;28;20456;-75
2022/06/26 01:40:53;;;;;;;4.57;3.90;;;21.70;1.00;;;;;;5009634;28;20499;-76
2022/06/26 01:43:24;;;;;;;4.50;3.70;;;21.70;1.00;;;;;;5009280;28;20240;-75
2022/06/26 01:45:52;;;;;;;4.53;3.20;;;21.70;1.00;;;;;;5008119;28;20424;-75
2022/06/26 01:48:19;;;;;;;5.93;4.23;;;21.70;1.00;;;;;;5008832;28;20508;-75
2022/06/26 01:50:45;;;;;;;12.80;3.83;;;21.60;3.80;;;;;;5008681;28;20437;-76
2022/06/26 01:53:12;;;;;;;5.00;3.83;;;21.60;5.40;;;;;;5007951;28;20441;-76
2022/06/26 01:55:38;;;;;;;13.80;4.30;;;21.60;15.30;;;;;;5008858;28;20487;-77
2022/06/26 01:58:03;;;;;;;11.40;3.80;;;21.60;16.10;;;;;;5008843;28;20503;-76
2022/06/26 02:00:31;;;;;;;3.50;3.10;;;21.60;12.60;;;;;;5007662;28;20553;-75
2022/06/26 02:02:57;;;;;;;3.60;2.97;;;21.50;8.80;;;;;;5008745;28;20261;-76
2022/06/26 02:05:23;;;;;;;4.20;3.20;;;21.40;12.80;;;;;;5008391;28;20961;-75
2022/06/26 02:07:49;;;;;;;3.57;2.97;;;21.30;14.80;;;;;;5009200;28;20413;-76
2022/06/26 02:15:43;;;;;;;4.13;2.77;;;21.10;18.40;;;;;;5007521;28;20515;-76
2022/06/26 02:18:08;;;;;;;4.60;3.00;;;21.20;17.90;;;;;;5008355;28;20523;-75
2022/06/26 02:20:34;;;;;;;4.57;3.20;;;21.20;19.30;;;;;;5008401;28;20344;-75
2022/06/26 02:22:59;;;;;;;7.00;3.17;;;21.10;18.70;;;;;;5005675;28;20641;-76
2022/06/26 02:25:26;;;;;;;4.10;3.30;;;21.10;17.00;;;;;;5008973;28;20537;-76
2022/06/26 02:27:51;;;;;;;6.10;3.00;;;21.10;21.30;;;;;;5008284;28;20174;-76
2022/06/26 02:30:16;;;;;;;4.23;3.20;;;21.10;21.00;;;;;;5007050;28;20811;-75
2022/06/26 02:32:42;;;;;;;4.73;3.00;;;21.00;18.70;;;;;;5007193;28;20422;-76
2022/06/26 02:35:08;;;;;;;3.90;2.90;;;21.00;19.20;;;;;;5008637;28;20228;-76
2022/06/26 02:37:34;;;;;;;4.00;2.87;;;20.90;19.50;;;;;;5007581;28;20544;-76
2022/06/26 02:40:00;;;;;;;3.20;2.67;;;20.90;19.80;;;;;;5013056;28;20197;-75
2022/06/26 02:42:25;;;;;;;4.00;3.00;;;20.90;21.80;;;;;;5016576;28;20512;-76
2022/06/26 02:44:51;;;;;;;3.90;2.90;;;20.80;22.10;;;;;;4990287;28;20226;-75
2022/06/26 02:47:17;;;;;;;4.80;2.90;;;20.80;24.80;;;;;;5007786;28;20666;-75
2022/06/26 02:49:42;;;;;;;5.20;3.00;;;20.80;25.20;;;;;;5007558;28;20181;-75
2022/06/26 02:52:08;;;;;;;3.90;3.50;;;20.80;27.50;;;;;;5007797;28;20535;-76
2022/06/26 02:54:33;;;;;;;8.60;3.87;;;20.60;32.60;;;;;;5003292;28;20336;-76
2022/06/26 02:56:59;;;;;;;6.93;3.20;;;20.60;35.20;;;;;;5008605;28;20170;-75
2022/06/26 02:59:25;;;;;;;3.80;3.23;;;20.60;40.80;;;;;;5005265;28;20236;-75
2022/06/26 03:01:50;;;;;;;3.47;2.97;;;20.60;41.10;;;;;;5006296;28;20282;-75
2022/06/26 03:04:16;;;;;;;9.53;3.20;;;20.80;42.50;;;;;;5007389;28;20663;-76
2022/06/26 03:06:41;;;;;;;5.63;3.27;;;20.50;41.30;;;;;;5007930;28;20606;-75
2022/06/26 03:09:07;;;;;;;4.17;2.90;;;20.50;43.90;;;;;;5012334;28;20185;-75
2022/06/26 03:11:32;;;;;;;3.97;3.30;;;20.40;46.00;;;;;;5004586;28;20181;-76
2022/06/26 03:13:58;;;;;;;5.67;3.20;;;20.40;46.70;;;;;;4989735;28;20695;-76
2022/06/26 03:16:23;;;;;;;3.97;3.23;;;20.40;46.80;;;;;;5005322;28;20190;-76
2022/06/26 03:18:49;;;;;;;4.00;3.13;;;20.30;46.70;;;;;;5007542;28;20206;-76
2022/06/26 03:21:14;;;;;;;4.00;3.23;;;20.30;46.70;;;;;;5006323;28;20477;-75
2022/06/26 03:26:24;;;;;;;3.77;3.30;;;20.30;46.70;;;;;;5008149;28;20321;-76
2022/06/26 03:28:49;;;;;;;4.60;3.27;;;20.60;47.10;;;;;;5006108;28;20535;-76
2022/06/26 03:31:15;;;;;;;4.77;3.47;;;20.50;46.80;;;;;;5006876;28;20178;-76
2022/06/26 03:33:40;;;;;;;4.20;3.27;;;20.60;46.90;;;;;;5006410;28;20309;-75
2022/06/26 03:36:08;;;;;;;7.33;3.00;;;20.90;47.30;;;;;;5006869;28;20201;-75
2022/06/26 03:38:37;;;;;;;4.63;3.73;;;20.60;46.90;;;;;;5005759;28;20194;-76
2022/06/26 03:41:03;;;;;;;4.50;3.60;;;20.60;46.90;;;;;;4993987;28;20431;-75
2022/06/26 03:43:28;;;;;;;6.77;3.50;;;20.50;46.80;;;;;;4993178;28;20459;-76
2022/06/26 03:45:54;;;;;;;4.30;3.70;;;20.50;46.90;;;;;;5007353;28;20740;-75
2022/06/26 03:48:19;;;;;;;5.10;3.77;;;20.40;47.10;;;;;;5006929;28;20176;-75
2022/06/26 03:50:45;;;;;;;4.40;3.73;;;20.30;47.30;;;;;;5007439;28;20261;-75
2022/06/26 03:53:10;;;;;;;6.13;3.87;;;20.30;51.20;;;;;;5006723;28;20289;-75
2022/06/26 03:55:36;;;;;;;6.53;3.50;;;20.30;59.80;;;;;;4989818;28;20300;-75
2022/06/26 03:58:03;;;;;;;5.30;3.93;;;20.20;61.50;;;;;;5007868;28;20269;-75
2022/06/26 04:00:28;;;;;;;4.30;3.40;;;20.20;66.50;;;;;;4987055;28;20285;-75
2022/06/26 04:02:55;;;;;;;6.07;3.80;;;20.00;72.20;;;;;;5006722;28;21038;-75
2022/06/26 04:05:21;;;;;;;5.60;3.63;;;19.90;79.00;;;;;;5006928;28;20269;-75
2022/06/26 04:07:46;;;;;;;5.40;3.60;;;19.70;87.20;;;;;;5007321;28;20504;-75
2022/06/26 04:10:12;;;;;;;4.57;3.70;;;19.60;91.40;;;;;;5019740;28;20554;-75
2022/06/26 04:12:38;;;;;;;4.07;3.27;;;19.50;92.40;;;;;;5017680;28;20252;-76
2022/06/26 04:15:04;;;;;;;5.70;3.70;;;19.50;93.20;;;;;;4988078;28;20205;-76
2022/06/26 04:17:29;;;;;;;5.30;3.50;;;19.50;93.50;;;;;;5006791;28;20203;-75
2022/06/26 04:19:55;;;;;;;4.70;3.67;;;19.70;94.60;;;;;;4988141;28;20471;-76
2022/06/26 04:22:22;;;;;;;3.87;3.30;;;19.40;93.60;;;;;;5005321;28;20253;-75
2022/06/26 04:24:47;;;;;;;4.40;3.20;;;19.50;92.90;;;;;;5005936;28;20261;-76
2022/06/26 04:27:13;;;;;;;5.43;3.40;;;19.40;91.50;;;;;;4989196;28;20413;-75
2022/06/26 04:29:39;;;;;;;6.23;3.50;;;19.40;91.90;;;;;;4992730;28;20179;-75
2022/06/26 04:32:04;;;;;;;4.17;3.03;;;19.60;91.30;;;;;;5008741;28;20311;-76
2022/06/26 04:34:30;;;;;;;7.13;3.27;;;19.60;91.10;;;;;;4992977;28;20586;-75
2022/06/26 04:36:55;;;;;;;6.33;3.00;;;19.60;90.70;;;;;;4993512;28;20265;-76
2022/06/26 04:39:21;;;;;;;4.60;3.20;;;19.60;90.20;;;;;;5017196;28;20666;-75
2022/06/26 04:41:47;;;;;;;4.23;3.00;;;19.60;90.50;;;;;;5021631;28;20240;-76
2022/06/26 04:44:13;;;;;;;4.40;3.87;;;19.60;90.20;;;;;;4991639;28;20512;-76
2022/06/26 04:46:41;;;;;;;6.47;3.53;;;19.60;90.20;;;;;;5009624;28;20455;-75
2022/06/26 04:49:07;;;;;;;8.60;4.10;;;19.60;91.80;;;;;;5009352;28;20186;-75
2022/06/26 04:51:36;;;;;;;5.80;3.70;;;19.60;92.40;;;;;;5009007;28;20443;-75
2022/06/26 04:54:02;;;;;;;6.17;4.50;;;19.60;93.30;;;;;;5007867;28;20195;-75
2022/06/26 04:56:28;;;;;;;4.20;3.47;;;19.60;94.10;;;;;;5009600;28;20444;-75
2022/06/26 04:58:53;;;;;;;4.40;3.37;;;19.80;94.50;;;;;;5009929;28;21192;-75
2022/06/26 05:01:19;;;;;;;4.90;3.47;;;19.70;93.60;;;;;;4992320;28;20182;-75
2022/06/26 05:03:45;;;;;;;4.23;3.50;;;19.70;94.80;;;;;;4993154;28;20688;-75
2022/06/26 05:06:10;;;;;;;8.60;3.70;;;19.60;95.00;;;;;;4991673;28;20167;-75
2022/06/26 05:08:36;;;;;;;4.87;3.37;;;19.60;96.50;;;;;;5010916;28;20469;-75
2022/06/26 05:11:02;;;;;;;5.33;3.13;;;19.60;96.20;;;;;;5021583;28;20184;-75
2022/06/26 05:13:27;;;;;;;3.83;3.03;;;21.30;88.70;;;;;;5012382;28;20272;-76
2022/06/26 05:15:53;;;;;;;3.57;2.90;;;19.80;88.90;;;;;;4991210;28;20197;-75
2022/06/26 05:18:18;;;;;;;3.60;3.10;;;19.80;85.80;;;;;;5009369;28;20170;-76
2022/06/26 05:20:44;;;;;;;3.70;2.67;;;19.90;80.50;;;;;;5009077;28;20182;-75
2022/06/26 05:23:11;;;;;;;5.77;2.70;;;20.00;76.40;;;;;;5009503;28;20198;-75
2022/06/26 05:25:39;;;;;;;6.27;2.70;;;20.10;73.30;;;;;;4991626;28;20224;-75
2022/06/26 05:28:04;;;;;;;3.50;2.70;;;20.10;67.40;;;;;;5010729;28;20417;-75
2022/06/26 05:30:30;;;;;;;3.20;2.30;;;20.00;66.30;;;;;;5008275;28;20437;-75
2022/06/26 05:32:55;;;;;;;3.53;2.60;;;20.00;70.10;;;;;;5009346;28;20256;-75
2022/06/26 05:35:21;;;;;;;5.07;2.50;;;20.10;66.60;;;;;;5008235;28;20647;-75
2022/06/26 05:37:47;;;;;;;4.17;2.50;;;20.20;61.90;;;;;;5009513;28;20210;-75
2022/06/26 05:40:13;;;;;;;3.97;2.20;;;20.40;58.10;;;;;;5011919;28;20211;-75
2022/06/26 05:42:38;;;;;;;5.60;2.87;;;20.40;51.00;;;;;;5011220;28;20257;-76
2022/06/26 05:45:04;;;;;;;3.33;2.23;;;20.50;47.00;;;;;;5008163;28;20529;-75
2022/06/26 05:47:30;;;;;;;3.57;2.30;;;20.60;46.90;;;;;;5009225;28;20244;-75
2022/06/26 05:49:55;;;;;;;3.47;2.47;;;20.50;46.90;;;;;;5008866;28;20805;-75
2022/06/26 05:52:21;;;;;;;3.43;2.00;;;20.60;46.90;;;;;;5007517;28;20194;-76
2022/06/26 05:54:47;;;;;;;2.83;2.30;;;20.60;46.90;;;;;;5008705;28;20272;-75
2022/06/26 05:57:12;;;;;;;4.63;2.37;;;20.70;47.10;;;;;;5009819;28;20175;-76
2022/06/26 05:59:39;;;;;;;3.80;2.50;;;20.90;47.10;;;;;;5007254;28;20260;-75
2022/06/26 06:02:04;;;;;;;2.40;1.90;;;20.90;47.20;;;;;;4991320;28;20277;-75
2022/06/26 06:04:30;;;;;;;5.23;2.37;;;21.00;38.80;;;;;;5009424;28;20612;-75
2022/06/26 06:06:56;;;;;;;3.60;2.20;;;21.00;37.50;;;;;;5008399;28;20281;-75
2022/06/26 06:09:21;;;;;;;4.63;2.23;;;21.10;37.60;;;;;;5015702;28;20177;-75
2022/06/26 06:11:47;;;;;;;3.07;2.37;;;21.10;31.80;;;;;;5020339;28;20190;-76
2022/06/26 06:14:12;;;;;;;2.80;2.17;;;21.20;30.50;;;;;;5008813;28;20252;-75
2022/06/26 06:16:38;;;;;;;4.20;2.40;;;21.20;34.70;;;;;;4988390;28;20697;-76
2022/06/26 06:19:03;;;;;;;3.37;2.53;;;21.20;33.40;;;;;;5007822;28;20202;-75
2022/06/26 06:21:29;;;;;;;3.37;2.20;;;21.30;32.50;;;;;;4990071;28;20170;-76
2022/06/26 06:23:54;;;;;;;3.33;2.47;;;21.40;29.10;;;;;;5006798;28;20383;-76
2022/06/26 06:26:20;;;;;;;4.13;2.40;;;21.40;26.90;;;;;;5008930;28;20166;-76
2022/06/26 06:28:45;;;;;;;6.80;2.53;;;21.60;27.60;;;;;;5007425;28;20221;-76
2022/06/26 06:31:11;;;;;;;6.47;2.50;;;21.50;26.00;;;;;;5004943;28;20715;-75
2022/06/26 06:33:37;;;;;;;3.57;2.37;;;21.50;27.30;;;;;;5007714;28;20287;-76
2022/06/26 06:36:03;;;;;;;3.37;2.10;;;21.60;25.10;;;;;;5008943;28;20527;-76
2022/06/26 06:38:28;;;;;;;2.73;2.27;;;21.70;24.70;;;;;;5008120;28;20213;-76
2022/06/26 06:40:54;;;;;;;3.00;2.00;;;21.80;23.30;;;;;;5026963;28;20252;-75
2022/06/26 06:43:19;;;;;;;2.83;2.30;;;22.10;18.90;;;;;;5002326;28;20595;-75
2022/06/26 06:45:45;;;;;;;3.30;2.33;;;21.80;20.40;;;;;;5008327;28;20172;-75
2022/06/26 06:48:10;;;;;;;3.23;2.23;;;21.90;20.50;;;;;;5007540;28;20174;-76
2022/06/26 06:50:36;;;;;;;4.30;2.60;;;22.00;18.40;;;;;;5007469;28;20205;-75
2022/06/26 06:53:02;;;;;;;3.37;2.20;;;22.10;17.60;;;;;;5006024;28;20182;-75
2022/06/26 06:55:27;;;;;;;3.90;2.20;;;22.10;16.90;;;;;;5007676;28;20815;-76
2022/06/26 06:57:53;;;;;;;3.37;2.43;;;22.10;14.70;;;;;;5007451;28;20494;-77
2022/06/26 07:00:18;;;;;;;4.20;2.47;;;22.20;14.70;;;;;;5007207;28;20307;-76
2022/06/26 07:02:44;;;;;;;3.60;2.00;;;22.30;12.30;;;;;;5005942;28;20457;-75
2022/06/26 07:05:10;;;;;;;4.13;2.10;;;22.40;11.60;;;;;;5007843;28;20197;-75
2022/06/26 07:07:36;;;;;;;2.90;2.13;;;22.60;11.30;;;;;;5007927;28;20246;-75
2022/06/26 07:10:03;;;;;;;2.90;2.33;;;22.80;7.20;;;;;;5017236;28;20545;-75
2022/06/26 07:12:29;;;;;;;2.90;2.00;;;23.00;3.70;;;;;;5009243;28;20526;-72
2022/06/26 07:14:54;;;;;;;4.10;2.20;;;23.30;1.00;;;;;;5006172;28;20564;-75
2022/06/26 07:17:22;;;;;;;2.60;1.90;;;23.30;1.00;;;;;;5008229;28;20247;-75
2022/06/26 07:19:47;;;;;;;7.03;2.30;;;23.40;1.00;;;;;;5005406;28;20206;-75
2022/06/26 07:22:13;;;;;;;2.80;2.10;;;23.60;1.00;;;;;;4989382;28;20829;-75
2022/06/26 07:24:39;;;;;;;3.83;2.20;;;23.70;1.00;;;;;;5002146;28;20679;-75
2022/06/26 07:27:05;;;;;;;6.17;2.50;;;23.90;1.00;;;;;;5003588;28;20541;-76
2022/06/26 07:29:31;;;;;;;4.53;2.43;;;24.00;1.00;;;;;;5004258;28;20283;-75
2022/06/26 07:31:57;;;;;;;3.70;2.27;;;24.10;1.00;;;;;;5006537;28;20523;-75
2022/06/26 07:34:24;;;;;;;3.43;2.30;;;24.20;1.00;;;;;;5006828;28;20395;-75
2022/06/26 07:36:50;;;;;;;4.10;2.70;;;24.30;1.00;;;;;;4987757;28;20182;-74
2022/06/26 07:39:19;;;;;;;2.73;2.23;;;24.40;1.00;;;;;;5001050;28;20456;-75
2022/06/26 07:41:46;;;;;;;3.87;2.33;;;24.60;1.00;;;;;;5020674;28;20420;-76
2022/06/26 07:44:12;;;;;;;3.60;2.07;;;24.90;1.00;;;;;;4989234;28;20931;-75
2022/06/26 07:46:39;;;;;;;3.90;2.47;;;25.10;1.00;;;;;;5005882;28;20436;-75
2022/06/26 07:49:06;;;;;;;3.03;2.07;;;25.40;1.00;;;;;;4988949;28;20532;-76
2022/06/26 07:51:32;;;;;;;21.60;2.80;;;25.80;1.00;;;;;;5006055;28;20524;-75
2022/06/26 07:53:59;;;;;;;3.03;2.10;;;26.00;1.00;;;;;;5005934;28;20463;-75
2022/06/26 07:56:25;;;;;;;3.80;2.43;;;25.90;1.00;;;;;;5007393;28;20483;-75
2022/06/26 07:58:55;;;;;;;6.30;2.10;;;25.90;1.00;;;;;;4988710;28;20466;-74
2022/06/26 08:01:21;;;;;;;3.47;2.30;;;26.20;1.00;;;;;;5003304;28;20471;-75
2022/06/26 08:03:47;;;;;;;4.10;2.20;;;26.40;1.00;;;;;;5007635;28;20491;-74
2022/06/26 08:06:13;;;;;;;2.87;1.93;;;26.10;1.00;;;;;;5014849;28;20181;-75
2022/06/26 08:08:39;;;;;;;3.00;2.20;;;26.00;1.00;;;;;;5014724;28;20498;-75
2022/06/26 08:11:05;;;;;;;3.13;2.17;;;26.30;1.00;;;;;;5034074;28;20238;-75
2022/06/26 08:13:30;;;;;;;2.47;2.00;;;26.60;1.00;;;;;;5035062;28;20192;-75
2022/06/26 08:15:56;;;;;;;3.93;2.13;;;26.80;1.00;;;;;;5033546;28;20516;-74
2022/06/26 08:18:22;;;;;;;4.00;2.67;;;27.10;1.00;;;;;;5021667;28;20639;-75
2022/06/26 08:20:47;;;;;;;3.77;2.80;;;27.30;1.00;;;;;;5014642;28;20192;-75
2022/06/26 08:23:13;;;;;;;2.83;2.03;;;27.20;1.00;;;;;;5007468;28;20182;-75
2022/06/26 08:25:38;;;;;;;3.47;2.20;;;27.30;1.00;;;;;;5014345;28;20174;-75
2022/06/26 08:28:04;;;;;;;3.23;2.10;;;27.50;1.00;;;;;;5015038;28;20162;-75
2022/06/26 08:30:30;;;;;;;3.00;2.30;;;27.60;1.00;;;;;;5013372;28;20186;-75
2022/06/26 08:32:58;;;;;;;2.73;2.03;;;27.90;1.00;;;;;;5014300;28;20585;-75
2022/06/26 08:35:25;;;;;;;3.27;2.00;;;27.70;1.00;;;;;;5014653;28;20472;-75
2022/06/26 08:37:51;;;;;;;3.30;2.07;;;27.60;1.00;;;;;;5014556;28;20181;-75
2022/06/26 08:40:16;;;;;;;2.77;1.97;;;27.70;1.00;;;;;;5020323;28;20517;-75
2022/06/26 08:42:47;;;;;;;2.80;1.80;;;27.80;1.00;;;;;;5034141;28;20224;-74
2022/06/26 08:45:15;;;;;;;2.53;1.80;;;28.00;1.00;;;;;;5033096;28;20271;-75
2022/06/26 08:47:41;;;;;;;2.63;1.80;;;28.10;1.00;;;;;;5034824;28;20223;-75
2022/06/26 08:50:08;;;;;;;3.20;1.87;;;28.20;1.00;;;;;;5024215;28;20185;-75
2022/06/26 08:52:34;;;;;;;2.50;1.70;;;28.20;1.00;;;;;;4996127;28;20201;-75
2022/06/26 08:55:04;;;;;;;3.67;1.83;;;28.00;1.00;;;;;;4996025;28;20212;-75
2022/06/26 08:57:30;;;;;;;2.67;1.70;;;28.10;1.00;;;;;;5014517;28;20170;-75
2022/06/26 08:59:55;;;;;;;3.50;2.00;;;28.40;1.00;;;;;;5012894;28;20255;-75
2022/06/26 09:02:21;;;;;;;6.10;2.00;;;28.80;1.00;;;;;;5014080;28;20169;-74
2022/06/26 09:04:46;;;;;;;2.93;1.63;;;29.20;1.00;;;;;;5014202;28;20197;-75
2022/06/26 09:07:12;;;;;;;2.87;1.90;;;29.30;1.00;;;;;;5014454;28;20169;-75
2022/06/26 09:09:39;;;;;;;2.73;1.73;;;29.40;1.00;;;;;;5016797;28;20236;-75
2022/06/26 09:12:06;;;;;;;4.07;2.00;;;29.50;1.00;;;;;;5001860;28;20177;-75
2022/06/26 09:14:32;;;;;;;2.60;1.60;;;30.10;1.00;;;;;;5010809;28;20201;-75
2022/06/26 09:17:00;;;;;;;3.08;1.50;;;31.10;1.00;;;;;;5011838;28;20498;-75
2022/06/26 09:19:33;;;;;;;4.25;2.00;;;32.30;1.00;;;;;;5010912;28;20206;-75
2022/06/26 09:22:15;;;;;;;6.20;2.35;;;33.50;1.00;;;;;;4993298;28;20261;-75
2022/06/26 09:24:53;;;;;;;2.90;1.70;;;34.50;1.00;;;;;;5010409;28;20284;-75
2022/06/26 09:27:18;;;;;;;4.20;1.70;;;34.90;1.00;;;;;;5011751;28;20265;-76
2022/06/26 09:29:54;;;;;;;4.50;1.77;;;35.30;1.00;;;;;;5009348;28;20257;-76
2022/06/26 09:32:22;;;;;;;2.30;1.60;;;36.00;1.00;;;;;;5010777;28;20712;-76
2022/06/26 09:34:52;;;;;;;2.20;1.48;;;36.90;1.00;;;;;;5010988;28;20213;-76
2022/06/26 09:37:19;;;;;;;2.05;1.50;;;37.70;1.00;;;;;;5010751;28;20178;-76
2022/06/26 09:39:45;;;;;;;2.17;1.40;;;38.20;1.00;;;;;;5011085;28;20217;-76
2022/06/26 09:42:18;;;;;;;2.30;1.40;;;38.70;1.00;;;;;;4995503;28;20194;-76
2022/06/26 09:44:46;;;;;;;2.20;1.50;;;38.90;1.00;;;;;;5008197;28;20229;-76
2022/06/26 09:47:23;;;;;;;2.50;1.50;;;39.20;1.00;;;;;;5010931;28;20158;-76
2022/06/26 09:49:51;;;;;;;2.30;1.55;;;39.90;1.00;;;;;;5010416;28;20601;-76
2022/06/26 09:52:19;;;;;;;2.10;1.30;;;40.20;1.00;;;;;;4991834;28;20269;-76
2022/06/26 09:54:46;;;;;;;2.08;1.30;;;40.50;1.00;;;;;;5009680;28;20334;-75
2022/06/26 09:57:13;;;;;;;1.92;1.30;;;40.50;1.00;;;;;;5013903;28;20174;-76
2022/06/26 09:59:40;;;;;;;2.45;1.40;;;39.80;1.00;;;;;;5008536;28;20232;-76
2022/06/26 10:07:41;;;;;;;2.00;1.48;;;40.80;1.00;;;;;;5010502;28;20193;-76
2022/06/26 10:10:07;;;;;;;2.58;1.60;;;41.60;1.00;;;;;;5007451;28;20188;-77
2022/06/26 10:12:34;;;;;;;3.28;1.60;;;42.60;1.00;;;;;;5009444;28;20178;-76
2022/06/26 10:15:00;;;;;;;2.58;1.63;;;43.50;1.00;;;;;;5007882;28;20197;-76
2022/06/26 10:18:00;;;;;;;2.10;1.30;;;42.90;1.00;;;;;;5010881;28;20185;-76
2022/06/26 10:20:29;;;;;;;2.50;1.42;;;42.10;1.00;;;;;;5010569;28;20204;-77
2022/06/26 10:22:55;;;;;;;2.72;1.52;;;41.10;1.00;;;;;;5009264;28;20308;-76
2022/06/26 10:25:26;;;;;;;2.90;1.70;;;40.00;1.00;;;;;;5009401;28;20245;-76
2022/06/26 10:27:52;;;;;;;2.88;2.08;;;38.70;1.00;;;;;;5010264;28;20178;-76
2022/06/26 10:30:20;;;;;;;2.40;1.70;;;37.90;1.00;;;;;;5008276;28;20185;-76
2022/06/26 10:33:05;;;;;;;2.20;1.52;;;37.50;1.00;;;;;;5010028;28;20629;-76
2022/06/26 10:35:48;;;;;;;2.35;1.52;;;37.20;1.00;;;;;;5009273;28;20224;-75
2022/06/26 10:38:31;;;;;;;2.97;1.65;;;37.20;1.00;;;;;;4990784;28;20379;-76
2022/06/26 10:44:17;;;;;;;2.70;1.92;;;37.10;1.00;;;;;;4989786;28;20197;-76
2022/06/26 10:46:47;;;;;;;8.85;2.00;;;36.30;1.00;;;;;;5005216;28;20176;-76
2022/06/26 10:49:13;;;;;;;2.65;1.80;;;35.80;1.00;;;;;;4991695;28;20745;-76
2022/06/26 10:51:41;;;;;;;2.70;1.70;;;36.40;1.00;;;;;;5006493;28;20197;-76
2022/06/26 10:54:25;;;;;;;3.53;1.60;;;37.30;1.00;;;;;;5013656;28;20284;-75
2022/06/26 10:57:02;;;;;;;2.88;1.80;;;36.30;1.00;;;;;;5007710;28;20173;-76
2022/06/26 10:59:29;;;;;;;2.30;1.70;;;35.50;1.00;;;;;;5008200;28;20223;-76
2022/06/26 11:01:54;;;;;;;2.50;1.80;;;35.10;1.00;;;;;;5008861;28;20166;-76
2022/06/26 11:04:20;;;;;;;3.33;2.00;;;35.80;1.00;;;;;;5009645;28;20190;-76
2022/06/26 11:06:46;;;;;;;3.50;2.10;;;36.10;1.00;;;;;;5008807;28;20559;-76
2022/06/26 11:09:11;;;;;;;2.95;1.90;;;35.90;1.00;;;;;;4995975;28;20192;-76
2022/06/26 11:11:37;;;;;;;2.50;1.90;;;35.30;1.00;;;;;;5028520;28;20174;-76
2022/06/26 11:14:08;;;;;;;2.95;1.80;;;34.50;1.00;;;;;;5009892;28;20197;-76
2022/06/26 11:16:35;;;;;;;4.07;1.90;;;33.90;1.00;;;;;;4998054;28;20752;-76
2022/06/26 11:19:04;;;;;;;2.78;1.70;;;33.60;1.00;;;;;;4991212;28;20209;-76
2022/06/26 11:21:30;;;;;;;3.05;2.13;;;33.50;1.00;;;;;;4990558;28;20170;-75
2022/06/26 11:23:56;;;;;;;2.88;2.38;;;33.00;1.00;;;;;;4991085;28;20194;-76
2022/06/26 11:26:22;;;;;;;3.53;2.10;;;32.40;1.00;;;;;;5009039;28;20177;-76
2022/06/26 11:29:14;;;;;;;2.80;2.20;;;32.20;1.00;;;;;;5008333;28;20182;-77
2022/06/26 11:31:48;;;;;;;3.63;2.05;;;32.50;1.00;;;;;;5003562;28;20264;-76
2022/06/26 11:34:15;;;;;;;3.35;1.73;;;32.90;1.00;;;;;;5008603;28;20213;-76
2022/06/26 11:36:50;;;;;;;3.53;2.03;;;33.10;1.00;;;;;;5008676;28;20189;-76
2022/06/26 11:39:16;;;;;;;4.85;2.10;;;32.70;1.00;;;;;;5008126;28;20520;-76
2022/06/26 11:41:43;;;;;;;3.00;2.20;;;32.50;1.00;;;;;;5026438;28;20169;-75
2022/06/26 11:44:08;;;;;;;3.13;2.15;;;32.60;1.00;;;;;;5023494;28;20208;-75
2022/06/26 11:46:34;;;;;;;5.65;2.20;;;33.00;1.00;;;;;;5009152;28;20174;-76
2022/06/26 11:48:59;;;;;;;3.58;2.10;;;33.40;1.00;;;;;;4991100;28;20293;-76
2022/06/26 11:51:30;;;;;;;4.35;2.10;;;33.70;1.00;;;;;;4989974;28;20181;-76
2022/06/26 11:53:55;;;;;;;3.30;2.20;;;33.80;1.00;;;;;;5008532;28;20675;-76
2022/06/26 11:56:23;;;;;;;4.38;2.55;;;33.80;1.00;;;;;;5009086;28;20253;-76
2022/06/26 11:58:51;;;;;;;4.63;3.80;;;33.60;1.00;;;;;;5008186;28;20197;-76
2022/06/26 12:01:18;;;;;;;2.78;1.98;;;33.80;1.00;;;;;;5007977;28;20166;-75
2022/06/26 12:03:47;;;;;;;4.25;2.38;;;33.90;1.00;;;;;;5009118;28;20189;-76
2022/06/26 12:06:25;;;;;;;3.00;2.00;;;34.20;1.00;;;;;;5008798;28;20251;-77
2022/06/26 12:08:50;;;;;;;2.50;2.00;;;35.10;1.00;;;;;;4990463;28;20178;-77
2022/06/26 12:11:16;;;;;;;2.55;1.60;;;36.20;1.00;;;;;;5021888;28;20220;-76
2022/06/26 12:13:43;;;;;;;3.35;2.00;;;37.10;1.00;;;;;;5028147;28;20197;-76
2022/06/26 12:16:10;;;;;;;2.70;1.80;;;37.50;1.00;;;;;;5009405;28;20176;-77
2022/06/26 12:18:39;;;;;;;3.28;1.90;;;37.40;1.00;;;;;;5012531;28;20660;-77
2022/06/26 12:21:23;;;;;;;2.60;1.77;;;37.00;1.00;;;;;;4989325;28;20197;-76
2022/06/26 12:23:51;;;;;;;3.67;1.90;;;36.30;1.00;;;;;;4989810;28;20225;-76
2022/06/26 12:26:19;;;;;;;2.80;2.05;;;35.20;1.00;;;;;;5008461;28;20626;-76
2022/06/26 12:28:51;;;;;;;2.90;2.00;;;34.70;1.00;;;;;;5008432;28;20298;-76
2022/06/26 12:31:19;;;;;;;2.88;1.80;;;33.90;1.00;;;;;;4986557;28;20273;-76
2022/06/26 12:33:45;;;;;;;3.00;2.13;;;33.50;1.00;;;;;;5007423;28;20281;-76
2022/06/26 12:36:11;;;;;;;2.85;2.05;;;33.20;1.00;;;;;;5007923;28;20253;-75
2022/06/26 12:38:37;;;;;;;2.58;1.85;;;33.30;1.00;;;;;;5008091;28;20261;-75
2022/06/26 12:41:05;;;;;;;3.78;2.00;;;33.60;1.00;;;;;;5024736;28;20165;-75
2022/06/26 12:43:31;;;;;;;2.80;2.00;;;34.20;1.00;;;;;;5028238;28;20162;-76
2022/06/26 12:45:57;;;;;;;4.93;1.80;;;34.20;1.00;;;;;;5001281;28;20189;-76
2022/06/26 12:48:23;;;;;;;3.10;1.95;;;34.80;1.00;;;;;;5008194;28;20170;-76
2022/06/26 12:50:48;;;;;;;4.07;2.17;;;35.10;1.00;;;;;;5010992;28;20162;-76
2022/06/26 12:53:14;;;;;;;6.25;1.90;;;35.20;1.00;;;;;;5011041;28;20170;-76
2022/06/26 12:55:39;;;;;;;3.00;1.80;;;35.30;1.00;;;;;;5011269;28;20638;-75
2022/06/26 12:58:05;;;;;;;3.25;1.90;;;35.10;1.00;;;;;;5011521;28;20299;-76
2022/06/26 13:00:30;;;;;;;2.63;1.83;;;34.90;1.00;;;;;;5010724;28;20212;-76
2022/06/26 13:02:56;;;;;;;2.70;1.83;;;35.20;1.00;;;;;;5011707;28;20182;-76
2022/06/26 13:05:22;;;;;;;5.45;1.60;;;35.60;1.00;;;;;;5011845;28;20201;-76
2022/06/26 13:07:48;;;;;;;3.15;2.00;;;35.90;1.00;;;;;;4993500;28;20174;-76